createdAt,value
2018-05-06T00:02:58.216Z,99.90
2018-05-06T00:06:04.511Z,99.90
2018-05-06T00:09:19.504Z,99.90
2018-05-06T00:12:26.768Z,99.90
2018-05-06T00:15:32.723Z,99.90
2018-05-06T00:18:38.822Z,99.90
2018-05-06T00:21:45.901Z,99.90
2018-05-06T00:24:52.418Z,99.90
2018-05-06T00:27:59.240Z,99.90
2018-05-06T00:31:05.302Z,99.90
2018-05-06T00:34:11.178Z,99.90
2018-05-06T00:37:17.496Z,99.90
2018-05-06T00:40:23.636Z,99.90
2018-05-06T00:43:29.770Z,99.90
2018-05-06T00:46:35.881Z,99.90
2018-05-06T00:49:42.083Z,99.90
2018-05-06T00:52:48.309Z,99.90
2018-05-06T00:55:54.239Z,99.90
2018-05-06T00:59:00.361Z,99.90
2018-05-06T01:02:06.546Z,99.90
2018-05-06T01:05:12.758Z,99.90
2018-05-06T01:08:19.117Z,99.90
2018-05-06T01:11:25.310Z,99.90
2018-05-06T01:14:31.325Z,99.90
2018-05-06T01:17:36.817Z,99.90
2018-05-06T01:20:42.772Z,99.90
2018-05-06T01:23:49.778Z,99.90
2018-05-06T01:26:55.370Z,99.90
2018-05-06T01:30:01.758Z,99.90
2018-05-06T01:33:07.102Z,99.90
2018-05-06T01:36:13.196Z,99.90
2018-05-06T01:39:19.137Z,99.90
2018-05-06T01:42:24.371Z,99.90
2018-05-06T01:45:30.413Z,99.90
2018-05-06T01:48:36.569Z,99.90
2018-05-06T01:51:42.832Z,99.90
2018-05-06T01:54:49.193Z,99.90
2018-05-06T01:57:55.467Z,99.90
2018-05-06T02:01:01.951Z,99.90
2018-05-06T02:04:08.036Z,99.90
2018-05-06T02:07:13.383Z,99.90
2018-05-06T02:10:19.550Z,99.90
2018-05-06T02:13:25.826Z,99.90
2018-05-06T02:16:31.712Z,99.90
2018-05-06T02:19:38.210Z,99.90
2018-05-06T02:22:45.073Z,99.90
2018-05-06T02:25:51.018Z,99.90
2018-05-06T02:28:56.934Z,99.90
2018-05-06T02:32:03.212Z,99.90
2018-05-06T02:35:08.634Z,99.90
2018-05-06T02:38:14.129Z,99.90
2018-05-06T02:41:20.215Z,99.90
2018-05-06T02:44:25.490Z,99.90
2018-05-06T02:47:31.639Z,99.90
2018-05-06T02:50:37.901Z,99.90
2018-05-06T02:53:43.305Z,99.90
2018-05-06T02:56:49.410Z,99.90
2018-05-06T02:59:55.444Z,99.90
2018-05-06T03:03:01.637Z,99.90
2018-05-06T03:06:07.357Z,99.90
2018-05-06T03:09:13.380Z,99.90
2018-05-06T03:12:19.656Z,99.90
2018-05-06T03:15:25.120Z,99.90
2018-05-06T03:18:31.656Z,99.90
2018-05-06T03:21:37.867Z,99.90
2018-05-06T03:24:44.079Z,99.90
2018-05-06T03:27:50.750Z,99.90
2018-05-06T03:30:57.026Z,99.90
2018-05-06T03:34:02.406Z,99.90
2018-05-06T03:37:07.460Z,99.90
2018-05-06T03:40:13.772Z,99.90
2018-05-06T03:43:19.922Z,99.90
2018-05-06T03:46:25.993Z,99.90
2018-05-06T03:49:32.300Z,99.90
2018-05-06T03:52:38.260Z,99.90
2018-05-06T03:55:44.773Z,99.90
2018-05-06T04:02:53.834Z,99.90
2018-05-06T04:05:59.906Z,99.90
2018-05-06T04:09:05.080Z,99.90
2018-05-06T04:12:11.336Z,99.90
2018-05-06T04:15:17.394Z,99.90
2018-05-06T04:18:23.469Z,99.90
2018-05-06T04:21:29.553Z,99.90
2018-05-06T04:24:34.910Z,99.90
2018-05-06T04:27:41.094Z,99.90
2018-05-06T04:30:47.218Z,99.90
2018-05-06T04:33:53.532Z,99.90
2018-05-06T04:36:58.954Z,99.90
2018-05-06T04:40:04.930Z,99.90
2018-05-06T04:43:11.171Z,99.90
2018-05-06T04:46:17.432Z,99.90
2018-05-06T04:49:23.369Z,99.90
2018-05-06T04:52:29.404Z,99.90
2018-05-06T04:55:34.876Z,99.90
2018-05-06T04:58:40.227Z,99.90
2018-05-06T05:01:46.347Z,99.90
2018-05-06T05:04:51.639Z,99.90
2018-05-06T05:07:57.793Z,99.90
2018-05-06T05:11:03.898Z,99.90
2018-05-06T05:14:09.225Z,99.90
2018-05-06T05:17:15.657Z,99.90
2018-05-06T05:20:21.995Z,99.90
2018-05-06T05:23:27.387Z,99.90
2018-05-06T05:26:33.566Z,99.90
2018-05-06T05:29:40.124Z,99.90
2018-05-06T05:32:45.964Z,99.90
2018-05-06T05:35:52.472Z,99.90
2018-05-06T05:38:58.717Z,99.90
2018-05-06T05:42:04.738Z,99.90
2018-05-06T05:45:10.980Z,99.90
2018-05-06T05:48:17.177Z,99.90
2018-05-06T05:51:24.174Z,99.90
2018-05-06T05:54:30.647Z,99.90
2018-05-06T05:57:35.789Z,99.90
2018-05-06T06:00:41.151Z,99.90
2018-05-06T06:03:47.266Z,99.90
2018-05-06T06:06:53.262Z,99.90
2018-05-06T06:09:58.563Z,99.90
2018-05-06T06:13:04.662Z,99.90
2018-05-06T06:16:10.931Z,99.90
2018-05-06T06:19:16.861Z,99.90
2018-05-06T06:22:22.189Z,99.90
2018-05-06T06:25:27.665Z,99.90
2018-05-06T06:28:33.790Z,99.90
2018-05-06T06:31:40.272Z,99.90
2018-05-06T06:34:45.400Z,99.90
2018-05-06T06:37:57.627Z,99.90
2018-05-06T06:41:03.466Z,99.90
2018-05-06T06:44:09.674Z,99.90
2018-05-06T06:47:16.147Z,99.90
2018-05-06T06:50:22.569Z,99.90
2018-05-06T06:53:28.097Z,99.90
2018-05-06T06:56:33.240Z,99.90
2018-05-06T06:59:54.523Z,99.90
2018-05-06T07:02:59.820Z,99.90
2018-05-06T07:06:04.986Z,99.90
2018-05-06T07:09:11.274Z,99.90
2018-05-06T07:12:17.468Z,99.90
2018-05-06T07:15:23.569Z,99.90
2018-05-06T07:18:28.786Z,99.90
2018-05-06T07:21:35.392Z,99.90
2018-05-06T07:24:41.524Z,99.90
2018-05-06T07:27:47.527Z,99.90
2018-05-06T07:30:52.866Z,99.90
2018-05-06T07:33:58.994Z,99.90
2018-05-06T07:37:05.036Z,99.90
2018-05-06T07:40:12.162Z,99.90
2018-05-06T07:43:18.644Z,99.90
2018-05-06T07:46:25.272Z,99.90
2018-05-06T07:49:32.090Z,99.90
2018-05-06T07:52:38.165Z,99.90
2018-05-06T07:55:44.764Z,99.90
2018-05-06T07:58:51.760Z,99.90
2018-05-06T08:01:58.628Z,99.90
2018-05-06T08:05:04.865Z,99.90
2018-05-06T08:08:12.896Z,99.90
2018-05-06T08:11:21.275Z,99.90
2018-05-06T08:14:27.240Z,99.90
2018-05-06T08:17:34.074Z,99.90
2018-05-06T08:20:39.378Z,99.90
2018-05-06T08:23:45.729Z,99.90
2018-05-06T08:26:52.673Z,99.90
2018-05-06T08:29:59.111Z,99.90
2018-05-06T08:33:05.319Z,99.90
2018-05-06T08:36:11.938Z,99.90
2018-05-06T08:39:17.750Z,99.90
2018-05-06T08:42:23.214Z,99.90
2018-05-06T08:45:29.352Z,99.90
2018-05-06T08:48:35.208Z,99.90
2018-05-06T08:51:40.721Z,99.90
2018-05-06T08:54:49.282Z,99.90
2018-05-06T08:57:56.274Z,99.90
2018-05-06T09:01:03.153Z,99.90
2018-05-06T09:04:09.701Z,99.90
2018-05-06T09:07:15.605Z,99.90
2018-05-06T09:10:21.987Z,99.90
2018-05-06T09:13:30.158Z,99.90
2018-05-06T09:16:35.564Z,99.90
2018-05-06T09:19:41.722Z,99.90
2018-05-06T09:22:49.474Z,99.90
2018-05-06T09:25:55.604Z,99.90
2018-05-06T09:29:02.099Z,99.90
2018-05-06T09:32:09.369Z,99.90
2018-05-06T09:35:15.388Z,99.90
2018-05-06T09:38:20.654Z,99.90
2018-05-06T09:41:27.325Z,99.90
2018-05-06T09:44:34.004Z,99.90
2018-05-06T09:47:39.491Z,99.90
2018-05-06T09:50:46.550Z,99.90
2018-05-06T09:53:53.852Z,99.90
2018-05-06T09:57:00.045Z,99.90
2018-05-06T10:00:06.068Z,99.90
2018-05-06T10:03:13.453Z,99.90
2018-05-06T10:06:19.760Z,99.90
2018-05-06T10:09:26.079Z,99.90
2018-05-06T10:12:32.427Z,99.90
2018-05-06T10:15:38.513Z,99.90
2018-05-06T10:18:44.255Z,99.90
2018-05-06T10:21:50.082Z,99.90
2018-05-06T10:24:57.557Z,99.90
2018-05-06T10:28:04.066Z,99.90
2018-05-06T10:31:10.203Z,99.90
2018-05-06T10:34:17.173Z,99.90
2018-05-06T10:37:24.297Z,98.10
2018-05-06T10:40:30.640Z,98.10
2018-05-06T10:43:37.707Z,97.20
2018-05-06T10:46:44.310Z,94.50
2018-05-06T10:49:51.206Z,93.40
2018-05-06T10:52:57.283Z,92.20
2018-05-06T10:56:05.319Z,92.00
2018-05-06T10:59:11.521Z,89.20
2018-05-06T11:02:17.435Z,87.50
2018-05-06T11:05:23.675Z,83.90
2018-05-06T11:08:33.773Z,83.80
2018-05-06T11:11:40.475Z,84.70
2018-05-06T11:14:45.705Z,83.40
2018-05-06T11:17:50.929Z,78.90
2018-05-06T11:20:57.443Z,75.20
2018-05-06T11:24:03.813Z,74.30
2018-05-06T11:27:10.631Z,74.20
2018-05-06T11:30:16.748Z,76.10
2018-05-06T11:33:23.088Z,73.20
2018-05-06T11:36:28.991Z,73.20
2018-05-06T11:39:35.011Z,70.80
2018-05-06T11:42:40.787Z,71.20
2018-05-06T11:45:46.729Z,71.10
2018-05-06T11:48:51.998Z,69.50
2018-05-06T11:51:57.998Z,69.00
2018-05-06T11:55:03.984Z,67.20
2018-05-06T11:58:10.074Z,65.80
2018-05-06T12:01:16.184Z,68.80
2018-05-06T12:04:22.749Z,65.70
2018-05-06T12:07:29.318Z,64.60
2018-05-06T12:10:35.253Z,64.50
2018-05-06T12:13:41.293Z,60.60
2018-05-06T12:16:47.398Z,60.60
2018-05-06T12:19:53.505Z,62.20
2018-05-06T12:22:58.616Z,62.20
2018-05-06T12:26:05.570Z,60.70
2018-05-06T12:29:12.815Z,59.00
2018-05-06T12:32:18.916Z,59.50
2018-05-06T12:35:25.357Z,59.40
2018-05-06T12:38:32.516Z,58.80
2018-05-06T12:41:38.559Z,58.80
2018-05-06T12:44:44.662Z,59.30
2018-05-06T12:47:50.758Z,57.40
2018-05-06T12:50:56.097Z,57.90
2018-05-06T12:54:02.264Z,58.60
2018-05-06T12:57:08.375Z,58.50
2018-05-06T13:00:14.445Z,58.50
2018-05-06T13:03:20.337Z,58.40
2018-05-06T13:06:26.348Z,59.40
2018-05-06T13:09:32.486Z,57.70
2018-05-06T13:12:38.133Z,57.20
2018-05-06T13:15:43.984Z,58.40
2018-05-06T13:18:51.808Z,57.80
2018-05-06T13:21:57.863Z,57.90
2018-05-06T13:25:04.717Z,57.20
2018-05-06T13:28:10.576Z,57.00
2018-05-06T13:31:16.822Z,57.60
2018-05-06T13:34:22.828Z,57.60
2018-05-06T13:40:59.143Z,55.20
2018-05-06T13:44:05.297Z,55.10
2018-05-06T13:47:11.119Z,56.90
2018-05-06T13:50:16.595Z,56.70
2018-05-06T13:53:22.543Z,56.60
2018-05-06T13:56:28.918Z,55.60
2018-05-06T13:59:35.572Z,55.60
2018-05-06T14:02:41.631Z,55.80
2018-05-06T14:05:47.439Z,55.10
2018-05-06T14:08:53.521Z,55.20
2018-05-06T14:11:59.542Z,53.30
2018-05-06T14:15:05.514Z,53.20
2018-05-06T14:18:10.584Z,52.10
2018-05-06T14:21:17.778Z,52.90
2018-05-06T14:24:23.625Z,52.70
2018-05-06T14:27:29.803Z,52.10
2018-05-06T14:30:36.077Z,52.20
2018-05-06T14:33:43.403Z,53.80
2018-05-06T14:36:49.968Z,52.30
2018-05-06T14:39:56.187Z,52.10
2018-05-06T14:43:02.406Z,52.00
2018-05-06T14:46:08.232Z,51.00
2018-05-06T14:49:13.865Z,51.00
2018-05-06T14:52:19.880Z,51.80
2018-05-06T14:55:25.114Z,51.60
2018-05-06T14:58:31.448Z,53.00
2018-05-06T15:01:36.747Z,52.90
2018-05-06T15:04:41.940Z,53.30
2018-05-06T15:07:47.946Z,52.60
2018-05-06T15:10:54.463Z,52.40
2018-05-06T15:14:02.040Z,50.60
2018-05-06T15:17:07.141Z,50.50
2018-05-06T15:20:12.298Z,51.30
2018-05-06T15:23:18.126Z,51.00
2018-05-06T15:26:24.353Z,51.00
2018-05-06T15:29:30.472Z,50.90
2018-05-06T15:32:36.772Z,50.40
2018-05-06T15:35:42.951Z,50.90
2018-05-06T15:38:49.007Z,51.80
2018-05-06T15:41:55.583Z,51.50
2018-05-06T15:45:08.310Z,52.00
2018-05-06T15:48:15.131Z,51.90
2018-05-06T15:51:22.167Z,51.30
2018-05-06T15:54:28.539Z,51.10
2018-05-06T15:57:34.690Z,51.10
2018-05-06T16:00:41.186Z,52.40
2018-05-06T16:03:59.478Z,51.70
2018-05-06T16:07:05.441Z,53.30
2018-05-06T16:10:11.487Z,52.30
2018-05-06T16:13:16.620Z,52.30
2018-05-06T16:16:22.880Z,52.60
2018-05-06T16:19:28.150Z,52.90
2018-05-06T16:22:41.360Z,52.40
2018-05-06T16:25:47.260Z,52.20
2018-05-06T16:28:52.779Z,52.40
2018-05-06T16:31:59.463Z,52.80
2018-05-06T16:35:05.528Z,54.70
2018-05-06T16:38:11.767Z,56.50
2018-05-06T16:41:18.720Z,58.30
2018-05-06T16:44:24.727Z,58.20
2018-05-06T16:47:30.825Z,59.20
2018-05-06T16:50:36.035Z,59.20
2018-05-06T16:53:41.253Z,60.00
2018-05-06T16:56:47.125Z,60.50
2018-05-06T16:59:53.254Z,59.60
2018-05-06T17:02:59.394Z,59.60
2018-05-06T17:06:04.402Z,59.60
2018-05-06T17:09:10.288Z,59.60
2018-05-06T17:12:15.452Z,59.50
2018-05-06T17:15:20.623Z,60.60
2018-05-06T17:18:26.647Z,61.00
2018-05-06T17:21:32.769Z,60.70
2018-05-06T17:24:38.793Z,59.90
2018-05-06T17:27:45.667Z,60.90
2018-05-06T17:30:51.728Z,60.80
2018-05-06T17:33:57.013Z,59.80
2018-05-06T17:37:02.324Z,58.80
2018-05-06T17:40:08.195Z,58.70
2018-05-06T17:43:14.022Z,59.00
2018-05-06T17:46:21.318Z,58.90
2018-05-06T17:49:27.281Z,58.90
2018-05-06T17:52:33.537Z,58.60
2018-05-06T17:55:39.427Z,59.10
2018-05-06T17:58:45.540Z,59.30
2018-05-06T18:01:51.696Z,59.50
2018-05-06T18:04:57.781Z,59.60
2018-05-06T18:08:04.026Z,59.40
2018-05-06T18:11:10.872Z,59.30
2018-05-06T18:14:16.816Z,59.60
2018-05-06T18:17:21.970Z,59.60
2018-05-06T18:20:28.404Z,60.40
2018-05-06T18:23:34.816Z,60.40
2018-05-06T18:26:39.922Z,60.50
2018-05-06T18:29:45.379Z,60.80
2018-05-06T18:32:51.391Z,61.30
2018-05-06T18:35:56.828Z,62.00
2018-05-06T18:39:02.955Z,61.90
2018-05-06T18:42:26.849Z,61.90
2018-05-06T18:45:32.629Z,62.40
2018-05-06T18:48:38.025Z,62.70
2018-05-06T18:51:58.043Z,63.00
2018-05-06T18:55:04.222Z,63.30
2018-05-06T18:58:11.105Z,64.20
2018-05-06T19:01:30.438Z,64.90
2018-05-06T19:04:36.342Z,64.10
2018-05-06T19:07:42.307Z,63.90
2018-05-06T19:10:47.467Z,64.20
2018-05-06T19:13:53.764Z,64.90
2018-05-06T19:16:59.785Z,64.70
2018-05-06T19:20:05.740Z,66.00
2018-05-06T19:23:11.757Z,65.80
2018-05-06T19:26:17.760Z,65.90
2018-05-06T19:29:23.920Z,66.30
2018-05-06T19:32:30.838Z,67.50
2018-05-06T19:35:36.934Z,68.20
2018-05-06T19:38:43.023Z,67.70
2018-05-06T19:41:49.821Z,68.60
2018-05-06T19:44:57.969Z,68.40
2018-05-06T19:48:04.450Z,69.00
2018-05-06T19:51:11.546Z,69.80
2018-05-06T19:54:18.247Z,69.70
2018-05-06T19:57:25.116Z,71.30
2018-05-06T20:00:41.114Z,70.40
2018-05-06T20:03:48.241Z,70.70
2018-05-06T20:06:54.337Z,73.00
2018-05-06T20:10:00.638Z,74.80
2018-05-06T20:13:08.545Z,75.80
2018-05-06T20:19:28.448Z,77.30
2018-05-06T20:22:34.814Z,77.00
2018-05-06T20:25:41.048Z,80.00
2018-05-06T20:28:51.955Z,80.60
2018-05-06T20:31:58.040Z,83.10
2018-05-06T20:35:03.749Z,87.50
2018-05-06T20:38:09.536Z,87.50
2018-05-06T20:41:18.935Z,91.30
2018-05-06T20:44:25.596Z,93.60
2018-05-06T20:47:31.058Z,96.50
2018-05-06T20:50:37.184Z,99.90
2018-05-06T20:53:43.043Z,99.90
2018-05-06T20:56:49.467Z,99.90
2018-05-06T20:59:56.104Z,99.90
2018-05-06T21:03:02.410Z,99.90
2018-05-06T21:06:08.670Z,99.90
2018-05-06T21:09:15.566Z,99.90
2018-05-06T21:12:23.341Z,99.90
2018-05-06T21:15:29.429Z,99.90
2018-05-06T21:18:35.601Z,99.90
2018-05-06T21:21:40.841Z,99.90
2018-05-06T21:24:46.585Z,99.90
2018-05-06T21:27:52.862Z,99.90
2018-05-06T21:30:58.750Z,99.90
2018-05-06T21:34:04.694Z,99.90
2018-05-06T21:37:11.747Z,99.90
2018-05-06T21:40:17.901Z,99.90
2018-05-06T21:43:24.065Z,99.90
2018-05-06T21:46:29.854Z,99.90
2018-05-06T21:49:36.093Z,99.90
2018-05-06T21:52:43.359Z,99.90
2018-05-06T21:55:50.386Z,99.90
2018-05-06T21:58:57.989Z,99.90
2018-05-06T22:02:04.902Z,99.90
2018-05-06T22:05:10.255Z,99.90
2018-05-06T22:08:15.677Z,99.90
2018-05-06T22:11:21.667Z,99.90
2018-05-06T22:14:27.876Z,99.90
2018-05-06T22:17:33.504Z,99.90
2018-05-06T22:20:40.356Z,99.90
2018-05-06T22:23:46.785Z,99.90
2018-05-06T22:26:53.334Z,99.90
2018-05-06T22:30:01.121Z,99.90
2018-05-06T22:33:07.944Z,99.90
2018-05-06T22:36:14.946Z,99.90
2018-05-06T22:39:20.527Z,99.90
2018-05-06T22:42:26.711Z,99.90
2018-05-06T22:45:34.617Z,99.90
2018-05-06T22:48:40.748Z,99.90
2018-05-06T22:51:46.824Z,99.90
2018-05-06T22:54:51.788Z,99.90
2018-05-06T22:57:57.590Z,99.90
2018-05-06T23:01:03.805Z,99.90
2018-05-06T23:04:09.050Z,99.90
2018-05-06T23:07:15.203Z,99.90
2018-05-06T23:10:21.313Z,99.90
2018-05-06T23:13:27.670Z,99.90
2018-05-06T23:16:33.995Z,99.90
2018-05-06T23:19:40.156Z,99.90
2018-05-06T23:22:46.108Z,99.90
2018-05-06T23:25:52.237Z,99.90
2018-05-06T23:28:58.195Z,99.90
2018-05-06T23:32:04.291Z,99.90
2018-05-06T23:35:10.585Z,99.90
2018-05-06T23:38:16.525Z,99.90
2018-05-06T23:41:22.498Z,99.90
2018-05-06T23:44:28.689Z,99.90
2018-05-06T23:47:33.934Z,99.90
2018-05-06T23:50:40.195Z,99.90
2018-05-06T23:53:46.304Z,99.90
2018-05-06T23:56:52.557Z,99.90
2018-05-06T23:59:58.681Z,99.90
